createdAt,value
2022-09-21T00:02:12.493Z,9.34
2022-09-21T00:04:44.110Z,9.28
2022-09-21T00:07:15.731Z,9.27
2022-09-21T00:09:47.370Z,9.26
2022-09-21T00:12:19.723Z,9.22
2022-09-21T00:14:51.312Z,9.20
2022-09-21T00:17:22.942Z,9.19
2022-09-21T00:19:54.558Z,9.20
2022-09-21T00:22:26.217Z,9.19
2022-09-21T00:24:57.837Z,9.16
2022-09-21T00:27:30.959Z,9.17
2022-09-21T00:30:07.617Z,9.15
2022-09-21T00:32:42.071Z,9.19
2022-09-21T00:35:13.668Z,9.21
2022-09-21T00:37:45.290Z,9.20
2022-09-21T00:40:17.361Z,9.20
2022-09-21T00:42:48.998Z,9.21
2022-09-21T00:45:23.814Z,9.20
2022-09-21T00:47:55.702Z,9.20
2022-09-21T00:50:27.514Z,9.18
2022-09-21T00:52:59.323Z,9.19
2022-09-21T00:55:43.318Z,9.19
2022-09-21T00:58:20.653Z,9.22
2022-09-21T01:00:56.897Z,9.22
2022-09-21T01:03:30.570Z,9.21
2022-09-21T01:06:03.070Z,9.23
2022-09-21T01:08:35.158Z,9.23
2022-09-21T01:11:48.261Z,9.26
2022-09-21T01:14:26.570Z,9.26
2022-09-21T01:17:24.566Z,9.31
2022-09-21T01:20:18.017Z,9.36
2022-09-21T01:23:04.854Z,9.40
2022-09-21T01:26:08.093Z,9.42
2022-09-21T01:29:10.900Z,9.39
2022-09-21T01:32:23.733Z,9.38
2022-09-21T01:35:07.221Z,9.40
2022-09-21T01:37:45.368Z,9.44
2022-09-21T01:40:31.966Z,9.45
2022-09-21T01:43:09.493Z,9.48
2022-09-21T01:45:47.975Z,9.50
2022-09-21T01:48:22.327Z,9.52
2022-09-21T01:50:57.515Z,9.53
2022-09-21T01:53:37.483Z,9.56
2022-09-21T01:56:18.394Z,9.60
2022-09-21T01:59:00.294Z,9.62
2022-09-21T02:01:38.904Z,9.59
2022-09-21T02:04:13.552Z,9.61
2022-09-21T02:06:47.136Z,9.62
2022-09-21T02:09:19.859Z,9.63
2022-09-21T02:11:51.488Z,9.64
2022-09-21T02:14:25.930Z,9.64
2022-09-21T02:17:06.423Z,9.66
2022-09-21T02:20:03.134Z,9.65
2022-09-21T02:22:54.910Z,9.62
2022-09-21T02:25:47.406Z,9.59
2022-09-21T02:28:26.980Z,9.60
2022-09-21T02:31:35.152Z,9.64
2022-09-21T02:34:21.902Z,9.68
2022-09-21T02:37:06.886Z,9.71
2022-09-21T02:39:54.881Z,9.73
2022-09-21T02:42:31.317Z,9.72
2022-09-21T02:45:14.628Z,9.73
2022-09-21T02:48:01.389Z,9.74
2022-09-21T02:50:48.709Z,9.77
2022-09-21T02:53:25.688Z,9.79
2022-09-21T02:56:02.981Z,9.79
2022-09-21T02:58:38.170Z,9.80
2022-09-21T03:01:15.289Z,9.80
2022-09-21T03:03:46.991Z,9.79
2022-09-21T03:06:21.755Z,9.81
2022-09-21T03:08:53.199Z,9.81
2022-09-21T03:11:25.720Z,9.79
2022-09-21T03:13:57.400Z,9.79
2022-09-21T03:16:29.333Z,9.79
2022-09-21T03:19:01.076Z,9.81
2022-09-21T03:21:32.747Z,9.84
2022-09-21T03:24:07.225Z,9.84
2022-09-21T03:26:40.829Z,9.85
2022-09-21T03:29:12.944Z,9.87
2022-09-21T03:31:47.401Z,9.88
2022-09-21T03:34:21.874Z,9.86
2022-09-21T03:36:53.584Z,9.85
2022-09-21T03:39:25.198Z,9.83
2022-09-21T03:41:56.965Z,9.83
2022-09-21T03:44:31.272Z,9.85
2022-09-21T03:47:03.212Z,9.85
2022-09-21T03:49:35.130Z,9.86
2022-09-21T03:52:06.778Z,9.88
2022-09-21T03:54:38.422Z,9.88
2022-09-21T03:57:10.041Z,9.85
2022-09-21T03:59:42.135Z,9.85
2022-09-21T04:02:13.830Z,9.85
2022-09-21T04:04:45.759Z,9.86
2022-09-21T04:07:17.458Z,9.85
2022-09-21T04:09:49.090Z,9.84
2022-09-21T04:12:23.729Z,9.84
2022-09-21T04:14:55.348Z,9.86
2022-09-21T04:17:27.886Z,9.89
2022-09-21T04:20:01.226Z,9.87
2022-09-21T04:22:32.817Z,9.86
2022-09-21T04:25:05.486Z,9.82
2022-09-21T04:27:37.176Z,9.81
2022-09-21T04:30:11.350Z,9.78
2022-09-21T04:32:43.622Z,9.76
2022-09-21T04:35:15.294Z,9.79
2022-09-21T04:37:46.870Z,9.82
2022-09-21T04:40:18.529Z,9.85
2022-09-21T04:42:56.056Z,9.90
2022-09-21T04:45:27.731Z,9.87
2022-09-21T04:47:59.330Z,9.86
2022-09-21T04:50:30.988Z,9.86
2022-09-21T04:53:08.016Z,9.86
2022-09-21T04:55:40.288Z,9.89
2022-09-21T04:58:11.854Z,9.91
2022-09-21T05:00:44.022Z,9.94
2022-09-21T05:03:15.682Z,9.93
2022-09-21T05:05:52.417Z,9.93
2022-09-21T05:08:44.869Z,9.95
2022-09-21T05:11:23.879Z,9.98
2022-09-21T05:13:58.284Z,9.98
2022-09-21T05:16:29.905Z,9.99
2022-09-21T05:19:01.507Z,10.00
2022-09-21T05:21:33.447Z,9.99
2022-09-21T05:24:05.351Z,9.99
2022-09-21T05:26:37.406Z,10.01
2022-09-21T05:29:09.272Z,10.03
2022-09-21T05:32:01.419Z,10.03
2022-09-21T05:34:54.018Z,10.05
2022-09-21T05:37:39.139Z,10.07
2022-09-21T05:40:11.971Z,10.09
2022-09-21T05:42:44.305Z,10.09
2022-09-21T05:45:17.978Z,10.10
2022-09-21T05:48:25.220Z,10.13
2022-09-21T05:51:27.118Z,10.14
2022-09-21T05:54:03.476Z,10.13
2022-09-21T05:56:53.842Z,10.09
2022-09-21T05:59:41.466Z,10.03
2022-09-21T06:02:44.254Z,10.05
2022-09-21T06:05:16.700Z,10.05
2022-09-21T06:07:51.202Z,10.06
2022-09-21T06:10:24.770Z,10.12
2022-09-21T06:12:56.640Z,10.19
2022-09-21T06:15:28.559Z,10.23
2022-09-21T06:18:00.263Z,10.29
2022-09-21T06:20:32.180Z,10.31
2022-09-21T06:23:10.557Z,10.36
2022-09-21T06:25:42.277Z,10.42
2022-09-21T06:28:14.030Z,10.43
2022-09-21T06:30:54.465Z,10.43
2022-09-21T06:33:26.374Z,10.47
2022-09-21T06:36:02.270Z,10.57
2022-09-21T06:38:35.544Z,10.64
2022-09-21T06:41:07.231Z,10.74
2022-09-21T06:43:38.823Z,10.80
2022-09-21T06:46:10.463Z,10.85
2022-09-21T06:48:42.139Z,10.83
2022-09-21T06:51:13.796Z,10.85
2022-09-21T06:53:45.517Z,10.96
2022-09-21T06:56:17.172Z,11.06
2022-09-21T06:58:48.828Z,11.18
2022-09-21T07:01:20.975Z,11.32
2022-09-21T07:03:54.014Z,11.40
2022-09-21T07:06:25.717Z,11.50
2022-09-21T07:11:50.129Z,11.71
2022-09-21T07:14:22.536Z,11.78
2022-09-21T07:16:54.180Z,11.93
2022-09-21T07:19:25.883Z,11.95
2022-09-21T07:21:57.578Z,12.11
2022-09-21T07:24:29.209Z,12.32
2022-09-21T07:27:04.188Z,12.49
2022-09-21T07:29:37.028Z,12.72
2022-09-21T07:32:10.001Z,13.00
2022-09-21T07:34:41.642Z,13.27
2022-09-21T07:37:14.613Z,13.56
2022-09-21T07:39:46.197Z,13.78
2022-09-21T07:42:20.062Z,14.20
2022-09-21T07:45:03.150Z,14.65
2022-09-21T07:47:35.433Z,15.32
2022-09-21T07:50:10.010Z,16.06
2022-09-21T07:52:41.532Z,16.98
2022-09-21T07:55:13.606Z,17.43
2022-09-21T07:58:03.791Z,17.63
2022-09-21T08:00:36.360Z,17.75
2022-09-21T08:03:08.100Z,17.62
2022-09-21T08:05:42.341Z,17.17
2022-09-21T08:08:15.564Z,16.97
2022-09-21T08:10:53.003Z,16.74
2022-09-21T08:13:30.192Z,16.66
2022-09-21T08:16:03.154Z,17.02
2022-09-21T08:18:39.621Z,17.16
2022-09-21T08:21:13.669Z,17.63
2022-09-21T08:23:46.011Z,18.06
2022-09-21T08:26:20.003Z,18.36
2022-09-21T08:28:53.412Z,18.27
2022-09-21T08:31:25.797Z,18.12
2022-09-21T08:33:57.755Z,17.82
2022-09-21T08:36:31.478Z,17.12
2022-09-21T08:39:07.399Z,16.62
2022-09-21T08:42:00.486Z,16.41
2022-09-21T08:44:47.067Z,16.53
2022-09-21T08:47:45.040Z,16.37
2022-09-21T08:50:22.561Z,16.12
2022-09-21T08:53:01.906Z,15.98
2022-09-21T08:55:34.075Z,15.93
2022-09-21T08:58:18.585Z,15.67
2022-09-21T09:01:12.645Z,15.71
2022-09-21T09:04:14.746Z,15.41
2022-09-21T09:06:58.149Z,15.33
2022-09-21T09:09:55.843Z,15.34
2022-09-21T09:13:08.597Z,15.36
2022-09-21T09:16:01.638Z,15.34
2022-09-21T09:19:00.334Z,15.22
2022-09-21T09:21:40.563Z,15.00
2022-09-21T09:24:24.320Z,15.06
2022-09-21T09:27:04.378Z,15.32
2022-09-21T09:29:50.883Z,15.24
2022-09-21T09:32:30.704Z,15.41
2022-09-21T09:35:28.035Z,15.76
2022-09-21T09:38:20.766Z,16.07
2022-09-21T09:41:19.633Z,16.36
2022-09-21T09:44:21.939Z,16.83
2022-09-21T09:46:59.638Z,16.73
2022-09-21T09:50:01.883Z,16.76
2022-09-21T09:52:34.070Z,16.92
2022-09-21T09:55:24.825Z,17.20
2022-09-21T09:58:00.042Z,16.97
2022-09-21T10:00:31.693Z,16.99
2022-09-21T10:03:18.230Z,17.28
2022-09-21T10:05:51.009Z,17.08
2022-09-21T10:08:48.781Z,17.24
2022-09-21T10:11:34.646Z,17.71
2022-09-21T10:14:13.867Z,18.03
2022-09-21T10:16:45.802Z,18.23
2022-09-21T10:19:24.344Z,18.41
2022-09-21T10:21:58.696Z,18.63
2022-09-21T10:24:37.335Z,18.19
2022-09-21T10:27:19.745Z,17.98
2022-09-21T10:29:51.507Z,18.18
2022-09-21T10:32:27.698Z,18.32
2022-09-21T10:35:08.046Z,18.42
2022-09-21T10:37:53.690Z,18.15
2022-09-21T10:40:27.335Z,17.84
2022-09-21T10:43:00.468Z,17.62
2022-09-21T10:45:37.071Z,17.47
2022-09-21T10:48:18.280Z,17.45
2022-09-21T10:50:51.973Z,17.53
2022-09-21T10:53:30.660Z,17.46
2022-09-21T10:56:22.114Z,17.89
2022-09-21T10:59:23.779Z,18.35
2022-09-21T11:01:58.246Z,19.07
2022-09-21T11:04:36.848Z,19.54
2022-09-21T11:07:20.520Z,19.28
2022-09-21T11:10:02.260Z,18.93
2022-09-21T11:12:39.850Z,18.83
2022-09-21T11:15:26.426Z,18.52
2022-09-21T11:18:13.044Z,18.30
2022-09-21T11:21:09.553Z,18.04
2022-09-21T11:23:55.764Z,17.89
2022-09-21T11:29:32.296Z,18.11
2022-09-21T11:32:26.250Z,18.53
2022-09-21T11:34:57.805Z,18.74
2022-09-21T11:37:49.609Z,18.88
2022-09-21T11:40:53.124Z,18.87
2022-09-21T11:43:27.797Z,18.70
2022-09-21T11:46:07.128Z,18.95
2022-09-21T11:48:47.486Z,19.48
2022-09-21T11:51:38.795Z,19.87
2022-09-21T11:54:16.344Z,20.44
2022-09-21T11:57:01.430Z,20.81
2022-09-21T12:00:04.190Z,20.81
2022-09-21T12:03:04.513Z,20.51
2022-09-21T12:05:58.928Z,20.09
2022-09-21T12:09:08.871Z,19.95
2022-09-21T12:11:48.780Z,19.61
2022-09-21T12:14:43.334Z,19.30
2022-09-21T12:17:24.411Z,19.03
2022-09-21T12:20:26.645Z,18.55
2022-09-21T12:23:38.682Z,18.23
2022-09-21T12:26:15.620Z,17.84
2022-09-21T12:28:53.703Z,17.39
2022-09-21T12:31:36.389Z,17.09
2022-09-21T12:34:20.545Z,17.01
2022-09-21T12:37:07.958Z,16.82
2022-09-21T12:39:47.111Z,16.94
2022-09-21T12:42:38.518Z,17.48
2022-09-21T12:45:19.124Z,17.80
2022-09-21T12:48:20.201Z,17.75
2022-09-21T12:51:18.203Z,17.44
2022-09-21T12:53:53.367Z,17.47
2022-09-21T12:56:37.503Z,17.24
2022-09-21T12:59:50.108Z,17.00
2022-09-21T13:02:33.285Z,16.81
2022-09-21T13:05:11.958Z,16.39
2022-09-21T13:08:08.549Z,16.12
2022-09-21T13:11:05.022Z,15.98
2022-09-21T13:13:53.901Z,15.87
2022-09-21T13:16:33.009Z,16.06
2022-09-21T13:19:16.996Z,16.42
2022-09-21T13:22:22.717Z,16.57
2022-09-21T13:25:06.140Z,16.67
2022-09-21T13:28:01.227Z,16.92
2022-09-21T13:30:37.843Z,17.11
2022-09-21T13:33:20.713Z,17.35
2022-09-21T13:36:02.013Z,17.55
2022-09-21T13:38:40.151Z,17.59
2022-09-21T13:41:17.956Z,17.49
2022-09-21T13:44:01.240Z,17.38
2022-09-21T13:46:35.942Z,17.33
2022-09-21T13:49:16.284Z,17.23
2022-09-21T13:52:08.657Z,17.14
2022-09-21T13:54:52.274Z,17.13
2022-09-21T13:57:36.963Z,17.09
2022-09-21T14:00:12.475Z,16.82
2022-09-21T14:02:58.709Z,16.59
2022-09-21T14:05:33.362Z,16.31
2022-09-21T14:08:06.823Z,16.13
2022-09-21T14:10:38.626Z,16.33
2022-09-21T14:13:26.871Z,16.58
2022-09-21T14:16:37.433Z,16.94
2022-09-21T14:19:18.104Z,17.11
2022-09-21T14:22:07.701Z,16.92
2022-09-21T14:24:52.211Z,17.05
2022-09-21T14:27:31.739Z,17.30
2022-09-21T14:30:22.160Z,17.39
2022-09-21T14:33:02.129Z,17.34
2022-09-21T14:35:38.361Z,17.02
2022-09-21T14:38:24.882Z,16.71
2022-09-21T14:41:01.868Z,16.24
2022-09-21T14:43:37.451Z,15.94
2022-09-21T14:46:16.656Z,15.75
2022-09-21T14:49:11.110Z,15.28
2022-09-21T14:52:04.367Z,14.87
2022-09-21T14:55:15.849Z,14.41
2022-09-21T14:58:04.807Z,14.25
2022-09-21T15:00:50.274Z,14.35
2022-09-21T15:03:40.747Z,14.38
2022-09-21T15:06:43.089Z,14.27
2022-09-21T15:10:04.333Z,14.31
2022-09-21T15:12:46.703Z,14.35
2022-09-21T15:15:28.466Z,14.27
2022-09-21T15:18:01.944Z,14.30
2022-09-21T15:20:36.712Z,14.23
2022-09-21T15:23:19.593Z,14.25
2022-09-21T15:26:09.272Z,14.26
2022-09-21T15:29:08.841Z,14.19
2022-09-21T15:31:42.281Z,14.24
2022-09-21T15:34:15.289Z,14.22
2022-09-21T15:36:50.944Z,14.19
2022-09-21T15:39:30.335Z,14.19
2022-09-21T15:42:07.652Z,14.23
2022-09-21T15:44:39.538Z,14.29
2022-09-21T15:47:13.108Z,14.33
2022-09-21T15:49:47.031Z,14.32
2022-09-21T15:52:34.311Z,14.33
2022-09-21T15:55:21.545Z,14.33
2022-09-21T15:57:58.833Z,14.31
2022-09-21T16:00:35.196Z,14.27
2022-09-21T16:03:17.214Z,14.19
2022-09-21T16:05:54.485Z,14.15
2022-09-21T16:08:35.187Z,14.12
2022-09-21T16:11:26.356Z,14.06
2022-09-21T16:14:42.805Z,14.03
2022-09-21T16:17:16.952Z,14.05
2022-09-21T16:19:51.261Z,14.09
2022-09-21T16:22:29.380Z,14.07
2022-09-21T16:25:01.776Z,14.04
2022-09-21T16:27:33.569Z,14.00
2022-09-21T16:30:06.436Z,13.97
2022-09-21T16:32:38.155Z,13.92
2022-09-21T16:35:31.435Z,13.87
2022-09-21T16:38:03.106Z,13.82
2022-09-21T16:40:34.814Z,13.75
2022-09-21T16:43:07.134Z,13.73
2022-09-21T16:45:40.034Z,13.71
2022-09-21T16:48:13.188Z,13.67
2022-09-21T16:50:52.133Z,13.64
2022-09-21T16:53:23.771Z,13.56
2022-09-21T16:55:55.631Z,13.52
2022-09-21T16:58:29.381Z,13.45
2022-09-21T17:01:01.256Z,13.39
2022-09-21T17:03:34.804Z,13.35
2022-09-21T17:06:17.618Z,13.27
2022-09-21T17:08:49.854Z,13.21
2022-09-21T17:11:21.492Z,13.15
2022-09-21T17:13:59.595Z,13.07
2022-09-21T17:16:31.200Z,12.99
2022-09-21T17:19:03.669Z,12.90
2022-09-21T17:21:35.463Z,12.86
2022-09-21T17:24:07.468Z,12.84
2022-09-21T17:26:39.389Z,12.82
2022-09-21T17:29:26.952Z,12.83
2022-09-21T17:31:58.714Z,12.84
2022-09-21T17:34:32.326Z,12.84
2022-09-21T17:37:04.089Z,12.80
2022-09-21T17:39:36.254Z,12.79
2022-09-21T17:42:21.275Z,12.77
2022-09-21T17:44:59.689Z,12.69
2022-09-21T17:47:33.623Z,12.64
2022-09-21T17:50:14.467Z,12.67
2022-09-21T17:53:05.073Z,12.66
2022-09-21T17:55:38.737Z,12.68
2022-09-21T17:58:24.406Z,12.68
2022-09-21T18:01:22.686Z,12.65
2022-09-21T18:03:54.919Z,12.62
2022-09-21T18:06:27.111Z,12.59
2022-09-21T18:08:58.927Z,12.56
2022-09-21T18:11:45.018Z,12.53
2022-09-21T18:14:28.698Z,12.51
2022-09-21T18:17:29.438Z,12.41
2022-09-21T18:20:24.357Z,12.32
2022-09-21T18:23:12.566Z,12.28
2022-09-21T18:25:48.686Z,12.22
2022-09-21T18:28:40.705Z,12.15
2022-09-21T18:31:47.991Z,12.14
2022-09-21T18:34:51.119Z,12.14
2022-09-21T18:37:34.566Z,12.13
2022-09-21T18:40:31.709Z,12.11
2022-09-21T18:43:15.497Z,12.12
2022-09-21T18:45:54.815Z,12.12
2022-09-21T18:48:51.157Z,12.11
2022-09-21T18:51:51.029Z,12.06
2022-09-21T18:54:28.673Z,11.99
2022-09-21T18:57:00.661Z,11.95
2022-09-21T18:59:32.494Z,11.92
2022-09-21T19:02:09.733Z,11.87
2022-09-21T19:04:45.489Z,11.83
2022-09-21T19:07:42.137Z,11.78
2022-09-21T19:10:25.501Z,11.72
2022-09-21T19:13:02.243Z,11.69
2022-09-21T19:15:59.017Z,11.63
2022-09-21T19:18:52.320Z,11.60
2022-09-21T19:21:39.457Z,11.59
2022-09-21T19:24:35.960Z,11.52
2022-09-21T19:27:16.165Z,11.49
2022-09-21T19:29:50.809Z,11.49
2022-09-21T19:32:45.689Z,11.50
2022-09-21T19:35:25.273Z,11.53
2022-09-21T19:38:04.009Z,11.56
2022-09-21T19:40:39.258Z,11.61
2022-09-21T19:43:43.289Z,11.68
2022-09-21T19:46:31.127Z,11.70
2022-09-21T19:49:25.217Z,11.71
2022-09-21T19:52:00.855Z,11.71
2022-09-21T19:54:53.977Z,11.75
2022-09-21T19:57:44.496Z,11.75
2022-09-21T20:00:17.590Z,11.76
2022-09-21T20:03:13.943Z,11.70
2022-09-21T20:05:58.585Z,11.62
2022-09-21T20:08:48.924Z,11.56
2022-09-21T20:11:50.569Z,11.55
2022-09-21T20:14:44.066Z,11.54
2022-09-21T20:17:30.299Z,11.54
2022-09-21T20:20:22.338Z,11.53
2022-09-21T20:22:54.839Z,11.52
2022-09-21T20:25:35.233Z,11.49
2022-09-21T20:28:07.314Z,11.47
2022-09-21T20:30:40.063Z,11.44
2022-09-21T20:33:15.232Z,11.40
2022-09-21T20:35:46.844Z,11.38
2022-09-21T20:38:18.550Z,11.38
2022-09-21T20:40:53.367Z,11.33
2022-09-21T20:43:27.936Z,11.29
2022-09-21T20:46:03.708Z,11.25
2022-09-21T20:48:37.032Z,11.19
2022-09-21T20:51:10.900Z,11.15
2022-09-21T20:53:42.537Z,11.10
2022-09-21T20:56:16.128Z,11.07
2022-09-21T20:58:47.725Z,11.03
2022-09-21T21:01:19.440Z,10.97
2022-09-21T21:03:51.353Z,10.94
2022-09-21T21:06:23.246Z,10.93
2022-09-21T21:08:54.899Z,10.89
2022-09-21T21:11:28.070Z,10.87
2022-09-21T21:13:59.682Z,10.85
2022-09-21T21:16:31.438Z,10.83
2022-09-21T21:19:03.764Z,10.80
2022-09-21T21:21:35.937Z,10.76
2022-09-21T21:24:26.265Z,10.74
2022-09-21T21:27:02.206Z,10.74
2022-09-21T21:29:35.194Z,10.72
2022-09-21T21:32:06.890Z,10.70
2022-09-21T21:34:38.766Z,10.67
2022-09-21T21:37:12.600Z,10.64
2022-09-21T21:39:44.431Z,10.64
2022-09-21T21:42:16.071Z,10.62
2022-09-21T21:44:50.696Z,10.59
2022-09-21T21:50:13.998Z,10.52
2022-09-21T21:52:45.661Z,10.50
2022-09-21T21:55:17.271Z,10.48
2022-09-21T21:57:48.956Z,10.45
2022-09-21T22:00:20.637Z,10.43
2022-09-21T22:02:52.318Z,10.39
2022-09-21T22:05:23.948Z,10.41
2022-09-21T22:07:55.571Z,10.44
2022-09-21T22:10:28.150Z,10.44
2022-09-21T22:12:59.778Z,10.44
2022-09-21T22:15:33.990Z,10.42
2022-09-21T22:18:07.653Z,10.42
2022-09-21T22:20:40.556Z,10.42
2022-09-21T22:23:13.854Z,10.41
2022-09-21T22:25:45.478Z,10.41
2022-09-21T22:28:17.143Z,10.45
2022-09-21T22:30:49.832Z,10.48
2022-09-21T22:33:21.646Z,10.51
2022-09-21T22:35:53.251Z,10.53
2022-09-21T22:38:24.919Z,10.54
2022-09-21T22:40:56.513Z,10.55
2022-09-21T22:43:28.139Z,10.57
2022-09-21T22:46:00.017Z,10.58
2022-09-21T22:48:31.748Z,10.60
2022-09-21T22:51:04.422Z,10.60
2022-09-21T22:53:36.114Z,10.60
2022-09-21T22:56:17.284Z,10.59
2022-09-21T22:58:51.222Z,10.61
2022-09-21T23:01:33.540Z,10.62
2022-09-21T23:04:10.843Z,10.59
2022-09-21T23:06:45.235Z,10.56
2022-09-21T23:09:21.364Z,10.55
2022-09-21T23:11:55.614Z,10.59
2022-09-21T23:14:27.265Z,10.60
2022-09-21T23:16:59.152Z,10.61
2022-09-21T23:19:31.331Z,10.62
2022-09-21T23:22:03.444Z,10.60
2022-09-21T23:24:35.046Z,10.57
2022-09-21T23:27:06.668Z,10.54
2022-09-21T23:29:38.291Z,10.55
2022-09-21T23:32:09.945Z,10.58
2022-09-21T23:34:41.624Z,10.57
2022-09-21T23:37:13.262Z,10.56
2022-09-21T23:39:44.914Z,10.56
2022-09-21T23:42:17.016Z,10.57
2022-09-21T23:44:48.643Z,10.57
2022-09-21T23:47:20.318Z,10.56
2022-09-21T23:49:52.251Z,10.51
2022-09-21T23:52:24.175Z,10.45
2022-09-21T23:54:55.779Z,10.35
2022-09-21T23:57:27.415Z,10.38
2022-09-21T23:59:59.022Z,10.43
